Time;durP1;ratioP1;P1;durP2;ratioP2;P2;SDS_P1;SDS_P2;PMS_P1;PMS_P2;Temp;Humidity;BMP_temperature;BMP_pressure;BME280_temperature;BME280_humidity;BME280_pressure;Samples;Min_cycle;Max_cycle;Signal;HPM_P1;HPM_P2
2021/10/21 00:02:20;;;;;;;5.30;5.00;;;17.40;99.90;;;;;;5056495;28;20170;-67
2021/10/21 00:04:46;;;;;;;5.87;5.47;;;17.30;99.90;;;;;;5053780;28;20177;-66
2021/10/21 00:07:12;;;;;;;5.53;5.13;;;17.40;99.90;;;;;;5054236;28;20204;-67
2021/10/21 00:09:38;;;;;;;6.50;6.00;;;17.30;99.90;;;;;;5055526;28;20210;-72
2021/10/21 00:12:04;;;;;;;6.00;5.60;;;17.30;99.90;;;;;;5055545;28;20177;-66
2021/10/21 00:14:32;;;;;;;6.30;5.70;;;17.10;99.90;;;;;;5055716;28;20412;-66
2021/10/21 00:16:58;;;;;;;5.50;5.10;;;17.20;99.90;;;;;;5053652;28;20424;-67
2021/10/21 00:19:24;;;;;;;6.87;5.00;;;17.20;99.90;;;;;;5055717;28;20461;-67
2021/10/21 00:21:49;;;;;;;5.73;4.90;;;17.30;99.90;;;;;;5054682;28;20420;-67
2021/10/21 00:24:18;;;;;;;5.33;4.90;;;17.30;99.90;;;;;;5055540;28;20173;-67
2021/10/21 00:26:44;;;;;;;5.40;5.00;;;17.30;99.90;;;;;;5054627;28;20184;-67
2021/10/21 00:29:10;;;;;;;7.53;6.00;;;17.30;99.90;;;;;;5055053;28;20485;-67
2021/10/21 00:31:36;;;;;;;5.20;4.90;;;17.30;99.90;;;;;;5054111;28;20424;-67
2021/10/21 00:34:02;;;;;;;5.80;5.47;;;17.20;99.90;;;;;;5053530;28;20185;-67
2021/10/21 00:36:29;;;;;;;5.63;5.20;;;17.20;99.90;;;;;;5055028;28;20625;-67
2021/10/21 00:38:55;;;;;;;5.97;5.57;;;17.10;99.90;;;;;;5054595;28;20173;-68
2021/10/21 00:41:21;;;;;;;6.37;5.97;;;17.20;99.90;;;;;;5055135;28;20411;-67
2021/10/21 00:43:47;;;;;;;6.07;5.57;;;17.10;99.90;;;;;;5054152;28;20412;-67
2021/10/21 00:46:14;;;;;;;5.13;4.83;;;17.00;99.90;;;;;;5053874;28;20401;-66
2021/10/21 00:48:42;;;;;;;6.97;6.50;;;16.90;99.90;;;;;;5054621;28;20416;-74
2021/10/21 00:51:13;;;;;;;6.10;5.70;;;16.90;99.90;;;;;;5054786;28;20426;-67
2021/10/21 00:53:40;;;;;;;5.30;4.80;;;17.00;99.90;;;;;;5054785;28;20408;-73
2021/10/21 00:56:08;;;;;;;5.40;5.00;;;16.80;99.90;;;;;;5054923;28;20424;-67
2021/10/21 00:58:34;;;;;;;4.63;4.33;;;16.80;99.90;;;;;;5055027;28;20408;-67
2021/10/21 01:01:00;;;;;;;4.67;4.37;;;16.80;99.90;;;;;;5053750;28;20423;-67
2021/10/21 01:03:26;;;;;;;4.77;4.37;;;16.70;99.90;;;;;;5053363;28;20423;-67
2021/10/21 01:05:52;;;;;;;5.17;4.67;;;16.70;99.90;;;;;;5053857;28;20404;-67
2021/10/21 01:08:18;;;;;;;6.93;4.70;;;16.50;99.90;;;;;;5054196;28;20781;-67
2021/10/21 01:10:44;;;;;;;4.50;4.20;;;16.50;99.90;;;;;;5054124;28;20444;-67
2021/10/21 01:13:10;;;;;;;4.80;4.50;;;16.50;99.90;;;;;;5054848;28;20588;-69
2021/10/21 01:15:36;;;;;;;4.93;4.63;;;16.50;99.90;;;;;;5054893;28;20424;-67
2021/10/21 01:18:02;;;;;;;5.40;5.00;;;16.40;99.90;;;;;;5054044;28;20170;-67
2021/10/21 01:20:28;;;;;;;5.90;5.30;;;16.40;99.90;;;;;;5054559;28;20184;-67
2021/10/21 01:22:55;;;;;;;4.60;4.30;;;16.50;99.90;;;;;;5053535;28;20434;-67
2021/10/21 01:25:20;;;;;;;4.40;4.10;;;16.50;99.90;;;;;;5054546;28;20416;-66
2021/10/21 01:27:48;;;;;;;4.20;3.90;;;16.40;99.90;;;;;;5053863;28;20468;-67
2021/10/21 01:30:25;;;;;;;4.90;4.50;;;16.40;99.90;;;;;;5054367;28;20201;-67
2021/10/21 01:32:53;;;;;;;4.10;3.90;;;16.30;99.90;;;;;;5053543;28;20411;-67
2021/10/21 01:35:19;;;;;;;4.10;3.90;;;16.30;99.90;;;;;;5054386;28;20752;-67
2021/10/21 01:37:47;;;;;;;4.13;3.93;;;16.20;99.90;;;;;;5053626;28;20428;-72
2021/10/21 01:40:15;;;;;;;3.77;3.53;;;16.20;99.90;;;;;;5054238;28;20404;-67
2021/10/21 01:42:41;;;;;;;4.00;3.70;;;16.20;99.90;;;;;;5054032;28;20416;-66
2021/10/21 01:45:33;;;;;;;4.03;3.83;;;16.30;99.90;;;;;;5053141;28;20451;-66
2021/10/21 01:48:02;;;;;;;3.23;3.13;;;16.30;99.90;;;;;;5052186;28;20782;-67
2021/10/21 01:50:29;;;;;;;4.00;3.80;;;16.30;99.90;;;;;;5053979;28;20452;-67
2021/10/21 01:52:56;;;;;;;3.40;3.17;;;16.40;99.90;;;;;;5053220;28;20419;-67
2021/10/21 01:55:22;;;;;;;4.27;4.00;;;16.30;99.90;;;;;;5036116;28;20431;-66
2021/10/21 01:57:48;;;;;;;3.77;3.57;;;16.40;99.90;;;;;;5052964;28;20455;-68
2021/10/21 02:00:16;;;;;;;4.00;3.70;;;16.40;99.90;;;;;;5053861;28;20408;-66
2021/10/21 02:02:44;;;;;;;2.83;2.67;;;16.40;99.90;;;;;;5053779;28;20498;-67
2021/10/21 02:05:11;;;;;;;3.40;3.10;;;16.30;99.90;;;;;;5053302;28;20411;-66
2021/10/21 02:07:37;;;;;;;2.70;2.60;;;16.30;99.90;;;;;;5053780;28;20400;-66
2021/10/21 02:10:07;;;;;;;2.53;2.43;;;16.30;99.90;;;;;;5052731;28;20482;-67
2021/10/21 02:12:33;;;;;;;2.70;2.60;;;16.20;99.90;;;;;;5052704;28;20424;-66
2021/10/21 02:14:59;;;;;;;5.33;2.80;;;16.10;99.90;;;;;;5052929;28;20419;-66
2021/10/21 02:17:25;;;;;;;3.10;2.80;;;16.10;99.90;;;;;;5053546;28;20404;-67
2021/10/21 02:19:51;;;;;;;3.53;2.47;;;16.10;99.90;;;;;;5051751;28;20174;-67
2021/10/21 02:22:18;;;;;;;2.20;2.10;;;16.10;99.90;;;;;;5053295;28;20420;-66
2021/10/21 02:24:44;;;;;;;2.20;2.03;;;16.10;99.90;;;;;;5053087;28;20441;-67
2021/10/21 02:27:10;;;;;;;2.30;2.20;;;15.90;99.90;;;;;;5052251;28;20422;-66
2021/10/21 02:29:35;;;;;;;2.00;1.90;;;15.90;99.90;;;;;;5053010;28;20467;-66
2021/10/21 02:32:01;;;;;;;2.00;1.90;;;15.70;97.90;;;;;;5051112;28;20195;-66
2021/10/21 02:34:27;;;;;;;2.20;2.10;;;15.60;97.50;;;;;;5053265;28;20195;-66
2021/10/21 02:36:53;;;;;;;1.97;1.80;;;15.60;96.90;;;;;;5052633;28;20415;-66
2021/10/21 02:39:19;;;;;;;3.50;3.27;;;15.60;96.90;;;;;;5052909;28;20187;-67
2021/10/21 02:41:45;;;;;;;3.57;2.17;;;15.50;96.10;;;;;;5051858;28;20870;-67
2021/10/21 02:44:11;;;;;;;2.60;2.03;;;15.50;96.90;;;;;;5052182;28;20579;-66
2021/10/21 02:46:37;;;;;;;3.10;1.93;;;15.50;97.10;;;;;;5052907;28;20278;-66
2021/10/21 02:49:03;;;;;;;3.33;1.80;;;15.50;97.10;;;;;;5052279;28;20181;-67
2021/10/21 02:51:29;;;;;;;2.13;2.03;;;15.50;96.20;;;;;;5052535;28;20430;-66
2021/10/21 02:53:55;;;;;;;1.80;1.70;;;15.50;96.10;;;;;;5050972;28;20418;-67
2021/10/21 02:56:20;;;;;;;3.80;2.17;;;15.50;96.30;;;;;;5051042;28;20505;-66
2021/10/21 02:58:46;;;;;;;2.60;2.50;;;15.50;96.90;;;;;;5053144;28;20170;-71
2021/10/21 03:01:12;;;;;;;2.53;2.30;;;15.50;96.60;;;;;;5052009;28;20619;-66
2021/10/21 03:03:38;;;;;;;3.50;2.70;;;15.50;96.70;;;;;;5052725;28;20177;-66
2021/10/21 03:06:03;;;;;;;4.00;3.57;;;15.50;96.70;;;;;;5051802;28;20187;-67
2021/10/21 03:08:29;;;;;;;3.20;2.90;;;15.50;97.40;;;;;;5052529;28;20234;-66
2021/10/21 03:10:55;;;;;;;3.00;2.80;;;15.40;96.60;;;;;;5051362;28;20201;-67
2021/10/21 03:13:20;;;;;;;5.33;2.57;;;15.40;96.50;;;;;;5052131;28;20188;-66
2021/10/21 03:15:46;;;;;;;2.97;2.77;;;15.50;98.40;;;;;;5052490;28;20242;-66
2021/10/21 03:18:12;;;;;;;2.90;2.80;;;15.50;97.50;;;;;;5051291;28;20223;-66
2021/10/21 03:20:38;;;;;;;2.70;2.43;;;15.50;97.00;;;;;;5051394;28;20233;-66
2021/10/21 03:23:03;;;;;;;4.67;3.43;;;15.50;96.50;;;;;;5051990;28;20184;-66
2021/10/21 03:25:30;;;;;;;4.00;2.80;;;15.40;97.00;;;;;;5050469;28;20188;-66
2021/10/21 03:27:57;;;;;;;5.33;4.83;;;15.50;97.80;;;;;;5050396;28;20172;-67
2021/10/21 03:30:23;;;;;;;3.03;2.73;;;15.50;97.80;;;;;;5052028;28;20454;-66
2021/10/21 03:32:50;;;;;;;3.57;2.57;;;15.50;97.10;;;;;;5050495;28;20458;-73
2021/10/21 03:35:16;;;;;;;2.37;2.17;;;15.40;97.80;;;;;;5051895;28;20464;-66
2021/10/21 03:37:41;;;;;;;3.53;2.90;;;15.40;98.30;;;;;;5051734;28;20991;-66
2021/10/21 03:40:09;;;;;;;4.67;3.53;;;15.40;98.40;;;;;;5051540;28;20183;-67
2021/10/21 03:42:35;;;;;;;6.63;4.23;;;15.40;98.30;;;;;;5052406;28;20172;-67
2021/10/21 03:45:02;;;;;;;4.20;2.70;;;15.40;97.80;;;;;;5051292;28;20477;-66
2021/10/21 03:47:27;;;;;;;5.97;5.03;;;15.30;97.50;;;;;;5052628;28;20438;-66
2021/10/21 03:49:53;;;;;;;2.83;2.33;;;15.30;98.90;;;;;;5051783;28;20454;-67
2021/10/21 03:52:20;;;;;;;2.27;2.17;;;15.30;97.70;;;;;;5052439;28;20180;-66
2021/10/21 03:54:46;;;;;;;3.80;3.03;;;15.30;97.30;;;;;;5052438;28;20625;-66
2021/10/21 03:57:12;;;;;;;3.40;2.77;;;15.20;97.30;;;;;;5051828;28;20762;-66
2021/10/21 03:59:38;;;;;;;3.03;2.30;;;15.20;97.50;;;;;;5052199;28;20476;-66
2021/10/21 04:02:04;;;;;;;3.00;2.80;;;15.20;98.90;;;;;;5051846;28;20206;-66
2021/10/21 04:04:30;;;;;;;4.17;2.50;;;15.00;99.90;;;;;;5052438;28;20410;-66
2021/10/21 04:06:56;;;;;;;4.03;2.50;;;14.90;99.90;;;;;;5051752;28;20213;-67
2021/10/21 04:09:21;;;;;;;3.73;3.43;;;14.90;99.90;;;;;;5052426;28;20493;-66
2021/10/21 04:11:47;;;;;;;2.80;2.60;;;14.80;99.90;;;;;;5052263;28;20685;-66
2021/10/21 04:14:13;;;;;;;3.53;3.23;;;14.80;99.90;;;;;;5051790;28;20206;-66
2021/10/21 04:16:39;;;;;;;2.87;2.43;;;14.70;99.90;;;;;;5051963;28;20210;-66
2021/10/21 04:19:04;;;;;;;6.40;2.20;;;14.70;99.90;;;;;;5051605;28;20513;-66
2021/10/21 04:21:30;;;;;;;3.40;3.10;;;14.70;99.90;;;;;;5051918;28;20205;-66
2021/10/21 04:23:56;;;;;;;3.40;2.67;;;14.70;99.90;;;;;;5051239;28;20629;-67
2021/10/21 04:26:22;;;;;;;5.30;4.20;;;14.70;99.90;;;;;;5052320;28;20412;-67
2021/10/21 04:28:49;;;;;;;2.63;2.43;;;14.70;99.90;;;;;;5052034;28;20172;-66
2021/10/21 04:31:15;;;;;;;2.97;2.60;;;14.70;99.90;;;;;;5051482;28;20462;-66
2021/10/21 04:33:40;;;;;;;4.63;2.70;;;14.70;99.90;;;;;;5052082;28;20433;-66
2021/10/21 04:36:06;;;;;;;2.10;2.00;;;14.70;99.90;;;;;;5051083;28;20934;-66
2021/10/21 04:38:32;;;;;;;5.40;2.83;;;14.60;99.90;;;;;;5052044;28;20182;-66
2021/10/21 04:40:58;;;;;;;2.87;2.50;;;14.60;99.90;;;;;;5051030;28;20781;-67
2021/10/21 04:43:23;;;;;;;3.13;1.97;;;14.50;99.90;;;;;;5053891;28;20175;-66
2021/10/21 04:45:50;;;;;;;2.53;1.83;;;14.40;99.90;;;;;;5055449;28;20295;-66
2021/10/21 04:48:16;;;;;;;2.20;2.10;;;14.40;99.90;;;;;;5054747;28;20547;-66
2021/10/21 04:50:42;;;;;;;3.07;2.20;;;14.40;99.90;;;;;;5055517;28;20451;-66
2021/10/21 04:53:07;;;;;;;2.10;2.00;;;14.30;99.90;;;;;;5054943;28;20239;-66
2021/10/21 04:55:36;;;;;;;2.50;2.17;;;14.30;99.90;;;;;;5055483;28;20179;-66
2021/10/21 04:58:05;;;;;;;4.00;3.27;;;14.30;99.90;;;;;;5054860;28;20529;-66
2021/10/21 05:00:32;;;;;;;1.97;1.80;;;14.20;99.90;;;;;;5054656;28;20416;-66
2021/10/21 05:03:09;;;;;;;2.97;2.60;;;14.20;99.90;;;;;;5053275;28;20489;-66
2021/10/21 05:05:35;;;;;;;3.57;2.93;;;14.20;99.90;;;;;;5055304;28;20397;-66
2021/10/21 05:08:01;;;;;;;3.70;3.10;;;14.10;99.90;;;;;;5054655;28;20458;-66
2021/10/21 05:10:27;;;;;;;2.30;2.03;;;14.10;99.90;;;;;;5054780;28;20452;-66
2021/10/21 05:12:53;;;;;;;2.93;2.73;;;13.90;99.90;;;;;;5055084;28;20436;-66
2021/10/21 05:15:18;;;;;;;2.80;2.43;;;13.80;99.90;;;;;;5054170;28;20260;-67
2021/10/21 05:17:44;;;;;;;1.70;1.60;;;13.80;99.90;;;;;;5054751;28;20185;-66
2021/10/21 05:20:11;;;;;;;2.83;2.63;;;13.90;99.90;;;;;;5054211;28;20331;-66
2021/10/21 05:22:37;;;;;;;2.23;2.00;;;13.80;99.90;;;;;;5058404;28;20180;-67
2021/10/21 05:25:04;;;;;;;2.30;2.13;;;13.80;99.90;;;;;;5053121;28;20424;-67
2021/10/21 05:27:30;;;;;;;5.03;3.00;;;13.70;99.90;;;;;;5055249;28;20447;-67
2021/10/21 05:29:55;;;;;;;2.57;2.47;;;13.70;99.90;;;;;;5052873;28;20491;-70
2021/10/21 05:32:21;;;;;;;2.70;2.60;;;13.60;99.90;;;;;;5054017;28;20264;-66
2021/10/21 05:34:47;;;;;;;2.03;2.03;;;13.60;99.90;;;;;;5054552;28;20184;-66
2021/10/21 05:37:13;;;;;;;2.23;2.03;;;13.70;99.90;;;;;;5053789;28;20169;-66
2021/10/21 05:39:39;;;;;;;3.13;2.20;;;13.50;99.90;;;;;;5053805;28;20644;-66
2021/10/21 05:42:04;;;;;;;1.50;1.40;;;13.60;99.90;;;;;;5053654;28;20481;-66
2021/10/21 05:44:30;;;;;;;1.43;1.00;;;13.60;99.90;;;;;;5053197;28;20637;-66
2021/10/21 05:46:56;;;;;;;1.53;1.43;;;13.60;99.90;;;;;;5052946;28;20181;-71
2021/10/21 05:49:22;;;;;;;1.53;1.43;;;13.60;99.90;;;;;;5053891;28;20207;-65
2021/10/21 05:51:48;;;;;;;1.87;1.80;;;13.50;99.90;;;;;;5054299;28;20441;-65
2021/10/21 05:54:14;;;;;;;2.10;2.00;;;13.50;99.90;;;;;;5053475;28;20427;-66
2021/10/21 05:56:40;;;;;;;2.67;2.10;;;13.40;99.90;;;;;;5053792;28;20758;-66
2021/10/21 05:59:06;;;;;;;1.90;1.80;;;13.30;99.90;;;;;;5053433;28;20458;-64
2021/10/21 06:01:31;;;;;;;1.63;1.53;;;13.40;99.90;;;;;;5053492;28;20172;-67
2021/10/21 06:03:57;;;;;;;2.40;2.30;;;13.40;99.90;;;;;;5041258;28;20179;-70
2021/10/21 06:06:24;;;;;;;2.70;2.60;;;13.40;99.90;;;;;;5054108;28;20175;-67
2021/10/21 06:08:49;;;;;;;2.40;2.30;;;13.40;99.90;;;;;;5054008;28;20756;-68
2021/10/21 06:11:15;;;;;;;2.30;2.20;;;13.40;99.90;;;;;;5053471;28;20550;-68
2021/10/21 06:13:41;;;;;;;2.63;2.53;;;13.40;99.90;;;;;;5053971;28;20207;-67
2021/10/21 06:16:08;;;;;;;2.67;2.47;;;13.40;99.90;;;;;;5053183;28;20177;-67
2021/10/21 06:18:34;;;;;;;2.10;2.00;;;13.40;99.90;;;;;;5052767;28;20670;-67
2021/10/21 06:21:05;;;;;;;2.27;2.20;;;13.30;99.90;;;;;;5053155;28;20852;-67
2021/10/21 06:23:31;;;;;;;2.60;2.50;;;13.40;99.90;;;;;;5053343;28;20423;-67
2021/10/21 06:25:57;;;;;;;2.20;2.10;;;13.30;99.90;;;;;;5053399;28;20477;-66
2021/10/21 06:28:23;;;;;;;2.37;2.27;;;13.30;99.90;;;;;;5053250;28;20434;-67
2021/10/21 06:30:48;;;;;;;2.93;2.83;;;13.30;99.90;;;;;;5053523;28;20197;-66
2021/10/21 06:33:15;;;;;;;1.53;1.37;;;13.30;99.90;;;;;;5053052;28;20174;-67
2021/10/21 06:35:45;;;;;;;2.00;2.00;;;13.20;99.90;;;;;;5053620;28;20177;-67
2021/10/21 06:38:13;;;;;;;2.57;2.47;;;13.20;99.90;;;;;;5052331;28;20423;-67
2021/10/21 06:40:39;;;;;;;2.60;2.40;;;13.20;99.90;;;;;;5053133;28;20485;-66
2021/10/21 06:43:05;;;;;;;2.90;2.80;;;13.10;99.90;;;;;;5051200;28;20512;-66
2021/10/21 06:45:32;;;;;;;2.33;2.23;;;13.00;99.90;;;;;;5052476;28;20229;-67
2021/10/21 06:47:58;;;;;;;2.43;2.30;;;13.00;99.90;;;;;;5052990;28;20915;-67
2021/10/21 06:50:24;;;;;;;3.90;3.80;;;13.00;99.90;;;;;;5052675;28;20450;-68
2021/10/21 06:52:51;;;;;;;2.57;2.47;;;13.00;99.90;;;;;;5052262;28;20497;-67
2021/10/21 06:55:16;;;;;;;2.83;2.73;;;13.10;99.90;;;;;;5052651;28;20414;-68
2021/10/21 06:57:50;;;;;;;3.00;2.80;;;13.00;99.90;;;;;;5053192;28;20506;-68
2021/10/21 07:00:17;;;;;;;3.30;3.20;;;13.00;99.90;;;;;;5052061;28;20411;-67
2021/10/21 07:02:42;;;;;;;6.17;5.77;;;13.00;99.90;;;;;;5052778;28;20504;-67
2021/10/21 07:05:14;;;;;;;6.20;5.77;;;13.00;99.90;;;;;;5052027;28;20830;-68
2021/10/21 07:07:40;;;;;;;5.90;5.67;;;13.00;99.90;;;;;;5052816;28;20813;-68
2021/10/21 07:10:08;;;;;;;5.63;5.43;;;13.00;99.90;;;;;;5051937;28;20863;-68
2021/10/21 07:12:36;;;;;;;5.30;4.80;;;13.00;99.90;;;;;;5052946;28;20423;-67
2021/10/21 07:15:03;;;;;;;5.60;5.30;;;13.00;99.90;;;;;;5052526;28;20497;-68
2021/10/21 07:17:30;;;;;;;4.93;4.63;;;12.80;99.90;;;;;;5051920;28;20482;-67
2021/10/21 07:19:56;;;;;;;4.50;4.20;;;12.70;99.90;;;;;;5052625;28;20826;-67
2021/10/21 07:22:21;;;;;;;4.13;3.93;;;12.70;99.90;;;;;;5052213;28;20412;-67
2021/10/21 07:24:47;;;;;;;3.10;3.00;;;12.70;99.90;;;;;;5052387;28;20238;-67
2021/10/21 07:27:13;;;;;;;3.70;3.50;;;12.70;99.90;;;;;;5051905;28;20259;-68
2021/10/21 07:29:39;;;;;;;3.40;3.20;;;12.60;99.90;;;;;;5052720;28;20504;-67
2021/10/21 07:32:05;;;;;;;4.03;3.73;;;12.60;99.90;;;;;;5050643;28;20189;-67
2021/10/21 07:34:31;;;;;;;2.87;2.77;;;12.60;99.90;;;;;;5052539;28;20181;-67
2021/10/21 07:36:58;;;;;;;3.30;3.10;;;12.40;99.90;;;;;;5052201;28;20521;-66
2021/10/21 07:39:24;;;;;;;2.80;2.70;;;12.30;99.90;;;;;;5051813;28;20174;-66
2021/10/21 07:41:51;;;;;;;3.80;3.60;;;12.30;99.90;;;;;;5052650;28;20508;-67
2021/10/21 07:44:18;;;;;;;3.80;3.60;;;12.40;99.90;;;;;;5051171;28;20452;-67
2021/10/21 07:46:46;;;;;;;4.67;4.47;;;12.40;99.90;;;;;;5052792;28;20425;-67
2021/10/21 07:49:16;;;;;;;4.13;3.83;;;12.40;99.90;;;;;;5051285;28;20424;-67
2021/10/21 07:51:42;;;;;;;5.33;3.27;;;12.40;99.90;;;;;;5052194;28;20893;-67
2021/10/21 07:54:12;;;;;;;4.10;3.00;;;12.40;99.90;;;;;;5051498;28;20437;-67
2021/10/21 07:56:38;;;;;;;3.60;3.10;;;12.30;99.90;;;;;;5052138;28;20412;-67
2021/10/21 07:59:04;;;;;;;3.00;2.80;;;12.30;99.90;;;;;;5049782;28;20447;-68
2021/10/21 08:01:30;;;;;;;3.57;3.37;;;12.30;99.90;;;;;;5051761;28;20463;-66
2021/10/21 08:03:57;;;;;;;2.67;2.57;;;12.30;99.90;;;;;;5051733;28;20432;-66
2021/10/21 08:06:23;;;;;;;3.30;3.00;;;12.30;99.90;;;;;;5051296;28;20187;-68
2021/10/21 08:08:48;;;;;;;3.40;3.10;;;12.30;99.90;;;;;;5051578;28;20426;-66
2021/10/21 08:11:15;;;;;;;5.30;3.17;;;12.30;99.90;;;;;;5051043;28;20201;-66
2021/10/21 08:13:40;;;;;;;2.97;2.83;;;12.30;99.90;;;;;;5050487;28;20595;-67
2021/10/21 08:16:06;;;;;;;3.70;3.40;;;12.30;99.90;;;;;;5051451;28;20400;-67
2021/10/21 08:18:32;;;;;;;3.70;3.40;;;12.30;99.90;;;;;;5054520;28;20178;-67
2021/10/21 08:20:58;;;;;;;3.53;3.23;;;12.30;99.90;;;;;;5054874;28;20498;-67
2021/10/21 08:23:24;;;;;;;6.57;3.30;;;12.40;99.90;;;;;;5055186;28;20170;-67
2021/10/21 08:25:50;;;;;;;4.80;3.10;;;12.40;99.90;;;;;;5056011;28;20396;-67
2021/10/21 08:28:15;;;;;;;3.43;3.00;;;12.40;99.90;;;;;;5055152;28;20180;-67
2021/10/21 08:30:43;;;;;;;4.33;3.37;;;12.40;99.90;;;;;;5055761;28;20206;-67
2021/10/21 08:33:11;;;;;;;3.50;3.20;;;12.40;99.90;;;;;;5054142;28;20193;-67
2021/10/21 08:35:37;;;;;;;4.03;3.70;;;12.40;99.90;;;;;;5055924;28;20407;-67
2021/10/21 08:38:03;;;;;;;5.20;3.23;;;12.40;99.90;;;;;;5055835;28;20408;-67
2021/10/21 08:40:31;;;;;;;3.77;3.47;;;12.30;99.90;;;;;;5055185;28;20414;-67
2021/10/21 08:42:58;;;;;;;4.10;3.00;;;12.40;99.90;;;;;;5055797;28;20181;-67
2021/10/21 08:45:26;;;;;;;5.70;3.50;;;12.30;99.90;;;;;;5054693;28;20853;-67
2021/10/21 08:47:55;;;;;;;6.30;3.10;;;12.40;99.90;;;;;;5055692;28;20429;-67
2021/10/21 08:50:21;;;;;;;3.73;3.30;;;12.50;99.90;;;;;;5054917;28;20445;-67
2021/10/21 08:52:47;;;;;;;3.83;3.40;;;12.50;99.90;;;;;;5055354;28;20408;-67
2021/10/21 08:55:14;;;;;;;3.87;2.70;;;12.50;99.90;;;;;;5054984;28;20412;-67
2021/10/21 08:57:40;;;;;;;3.53;2.37;;;12.50;99.90;;;;;;5055236;28;20429;-67
2021/10/21 09:00:08;;;;;;;4.03;2.60;;;12.60;99.90;;;;;;5055452;28;20412;-67
2021/10/21 09:05:34;;;;;;;5.23;3.13;;;12.70;99.90;;;;;;5054711;28;20414;-67
2021/10/21 09:08:22;;;;;;;3.97;3.20;;;12.60;99.90;;;;;;5054764;28;20507;-67
2021/10/21 09:10:53;;;;;;;3.90;3.50;;;12.70;99.90;;;;;;5055319;28;20446;-67
2021/10/21 09:13:30;;;;;;;4.07;3.67;;;12.70;99.90;;;;;;5054557;28;20393;-67
2021/10/21 09:15:58;;;;;;;4.07;3.27;;;12.70;99.90;;;;;;5055396;28;20410;-67
2021/10/21 09:18:26;;;;;;;9.47;3.77;;;12.90;99.90;;;;;;5054748;28;20418;-67
2021/10/21 09:20:52;;;;;;;5.77;3.00;;;13.20;99.90;;;;;;5054750;28;20408;-66
2021/10/21 09:23:25;;;;;;;4.37;2.93;;;13.40;99.90;;;;;;5054484;28;20423;-67
2021/10/21 09:25:51;;;;;;;5.83;3.20;;;13.80;99.90;;;;;;5054964;28;20448;-66
2021/10/21 09:28:27;;;;;;;6.00;3.03;;;13.90;99.90;;;;;;5053814;28;20943;-67
2021/10/21 09:30:57;;;;;;;5.83;2.77;;;14.10;99.90;;;;;;5054904;28;20934;-67
2021/10/21 09:33:25;;;;;;;4.27;2.80;;;14.20;99.90;;;;;;5054214;28;20896;-67
2021/10/21 09:35:56;;;;;;;4.23;2.80;;;14.30;99.90;;;;;;5054633;28;20416;-67
2021/10/21 09:38:27;;;;;;;5.33;3.63;;;14.40;99.90;;;;;;5054097;28;20408;-66
2021/10/21 09:40:54;;;;;;;3.73;2.93;;;14.50;99.90;;;;;;5054736;28;20414;-66
2021/10/21 09:43:31;;;;;;;6.10;2.60;;;14.60;99.90;;;;;;5053821;28;20950;-67
2021/10/21 09:45:58;;;;;;;8.17;3.37;;;14.60;99.50;;;;;;5054788;28;20562;-66
2021/10/21 09:48:23;;;;;;;7.63;2.67;;;14.70;99.90;;;;;;5053654;28;20785;-67
2021/10/21 09:50:49;;;;;;;3.43;3.10;;;14.70;99.30;;;;;;5054386;28;20452;-67
2021/10/21 09:53:20;;;;;;;4.03;3.70;;;14.70;99.00;;;;;;5053893;28;20182;-67
2021/10/21 09:55:47;;;;;;;4.97;3.00;;;14.60;98.80;;;;;;5054437;28;20421;-67
2021/10/21 09:58:16;;;;;;;3.50;3.20;;;14.50;99.20;;;;;;5053688;28;20497;-67
2021/10/21 10:00:43;;;;;;;3.50;3.20;;;14.50;99.90;;;;;;5053053;28;20437;-67
2021/10/21 10:03:29;;;;;;;5.17;3.43;;;14.40;99.70;;;;;;5054611;28;20843;-67
2021/10/21 10:05:56;;;;;;;3.87;3.57;;;14.30;99.90;;;;;;5054536;28;20824;-66
2021/10/21 10:08:27;;;;;;;3.90;3.60;;;14.10;99.90;;;;;;5052443;28;20737;-67
2021/10/21 10:11:08;;;;;;;4.10;3.70;;;14.10;99.90;;;;;;5053989;28;20495;-68
2021/10/21 10:13:35;;;;;;;5.10;4.30;;;14.00;99.90;;;;;;5053226;28;20430;-66
2021/10/21 10:16:01;;;;;;;7.40;4.10;;;13.90;99.90;;;;;;5053893;28;20412;-66
2021/10/21 10:18:30;;;;;;;6.30;4.47;;;13.90;99.90;;;;;;5053360;28;20741;-67
2021/10/21 10:21:23;;;;;;;5.30;4.90;;;13.80;99.90;;;;;;5053883;28;20408;-66
2021/10/21 10:23:54;;;;;;;5.13;3.20;;;14.00;99.90;;;;;;5054122;28;20490;-66
2021/10/21 10:26:46;;;;;;;5.03;4.40;;;14.20;99.90;;;;;;5053057;28;20798;-66
2021/10/21 10:29:20;;;;;;;4.70;3.70;;;14.70;99.90;;;;;;5053577;28;20408;-71
2021/10/21 10:31:55;;;;;;;5.67;3.50;;;14.90;99.00;;;;;;5053294;28;20902;-66
2021/10/21 10:34:33;;;;;;;3.17;2.90;;;15.00;98.60;;;;;;5052944;28;20460;-67
2021/10/21 10:37:15;;;;;;;4.73;3.40;;;15.00;97.70;;;;;;5053757;28;20409;-66
2021/10/21 10:39:58;;;;;;;4.50;4.00;;;14.90;97.60;;;;;;5053742;28;20816;-67
2021/10/21 10:42:30;;;;;;;4.50;2.90;;;14.90;97.80;;;;;;5052787;28;20389;-67
2021/10/21 10:44:59;;;;;;;3.30;3.00;;;14.80;97.60;;;;;;5052926;28;20466;-66
2021/10/21 10:47:49;;;;;;;5.20;3.00;;;14.60;97.50;;;;;;5052808;28;20412;-67
2021/10/21 10:50:39;;;;;;;3.83;3.53;;;14.50;98.10;;;;;;5052923;28;20445;-67
2021/10/21 10:53:07;;;;;;;4.30;3.23;;;14.30;98.70;;;;;;5053263;28;20424;-66
2021/10/21 10:55:50;;;;;;;7.47;3.10;;;14.20;99.60;;;;;;5052626;28;20403;-66
2021/10/21 10:58:29;;;;;;;6.60;2.43;;;14.10;99.60;;;;;;5052700;28;20404;-67
2021/10/21 11:00:59;;;;;;;3.87;3.50;;;14.10;99.80;;;;;;5052874;28;20487;-67
2021/10/21 11:03:31;;;;;;;3.30;3.00;;;14.00;99.50;;;;;;5052523;28;20412;-66
2021/10/21 11:06:02;;;;;;;4.63;2.50;;;13.90;99.30;;;;;;5053346;28;20427;-67
2021/10/21 11:08:47;;;;;;;4.30;2.90;;;13.90;99.90;;;;;;5052545;28;20912;-67
2021/10/21 11:11:49;;;;;;;8.13;3.20;;;13.90;99.90;;;;;;5052930;28;20447;-66
2021/10/21 11:14:31;;;;;;;6.50;3.13;;;13.90;99.90;;;;;;5052739;28;20502;-70
2021/10/21 11:16:57;;;;;;;4.30;2.67;;;13.80;99.90;;;;;;5053081;28;20986;-66
2021/10/21 11:19:48;;;;;;;2.77;2.57;;;13.80;99.90;;;;;;5052259;28;20761;-67
2021/10/21 11:22:19;;;;;;;3.73;3.00;;;13.80;99.90;;;;;;5053013;28;20456;-66
2021/10/21 11:27:11;;;;;;;4.37;3.90;;;13.70;99.90;;;;;;5052835;28;20450;-66
2021/10/21 11:29:37;;;;;;;7.53;3.70;;;13.70;99.90;;;;;;5051799;28;20212;-66
2021/10/21 11:32:10;;;;;;;5.93;2.90;;;13.60;99.90;;;;;;5052672;28;20510;-66
2021/10/21 11:34:37;;;;;;;6.13;3.30;;;13.60;99.90;;;;;;5050628;28;20543;-66
2021/10/21 11:37:03;;;;;;;8.33;3.47;;;13.70;99.90;;;;;;5052423;28;20526;-66
2021/10/21 11:39:30;;;;;;;3.20;3.00;;;13.70;99.90;;;;;;5051931;28;20442;-66
2021/10/21 11:41:56;;;;;;;4.80;3.00;;;13.70;99.90;;;;;;5052678;28;20399;-67
2021/10/21 11:44:22;;;;;;;4.00;3.13;;;13.70;99.90;;;;;;5051849;28;20466;-67
2021/10/21 11:46:59;;;;;;;4.73;2.60;;;13.90;99.90;;;;;;5051362;28;20419;-67
2021/10/21 11:49:33;;;;;;;2.73;2.53;;;13.90;99.90;;;;;;5051909;28;20568;-67
2021/10/21 11:52:10;;;;;;;4.97;2.83;;;14.00;99.90;;;;;;5055255;28;20397;-66
2021/10/21 11:54:38;;;;;;;2.93;2.80;;;14.10;99.90;;;;;;5058314;28;20405;-67
2021/10/21 11:57:05;;;;;;;5.57;2.90;;;14.10;99.90;;;;;;5059080;28;20402;-66
2021/10/21 11:59:35;;;;;;;2.87;2.60;;;14.10;99.90;;;;;;5057366;28;20755;-67
2021/10/21 12:02:18;;;;;;;3.13;2.80;;;14.10;99.90;;;;;;5059075;28;20408;-66
2021/10/21 12:04:46;;;;;;;3.70;2.80;;;14.00;99.90;;;;;;5059063;28;20945;-67
2021/10/21 12:07:13;;;;;;;2.60;2.40;;;14.10;99.90;;;;;;5058839;28;20490;-66
2021/10/21 12:09:41;;;;;;;2.27;2.17;;;14.00;99.90;;;;;;5058074;28;20608;-67
2021/10/21 12:12:09;;;;;;;6.00;2.47;;;14.00;99.90;;;;;;5058808;28;20787;-67
2021/10/21 12:14:37;;;;;;;3.53;2.57;;;14.10;99.90;;;;;;5058085;28;20434;-66
2021/10/21 12:17:04;;;;;;;3.50;2.47;;;14.10;99.90;;;;;;5059079;28;20876;-66
2021/10/21 12:19:30;;;;;;;1.90;1.80;;;14.10;99.90;;;;;;5058387;28;20395;-66
2021/10/21 12:22:05;;;;;;;3.67;1.77;;;14.10;99.90;;;;;;5058668;28;20415;-67
2021/10/21 12:24:32;;;;;;;7.20;2.33;;;14.10;99.60;;;;;;5058195;28;20434;-66
2021/10/21 12:27:00;;;;;;;2.17;2.10;;;14.10;99.90;;;;;;5058475;28;20903;-66
2021/10/21 12:29:43;;;;;;;3.93;2.10;;;14.00;99.20;;;;;;5057579;28;20435;-67
2021/10/21 12:32:10;;;;;;;2.60;2.33;;;14.00;99.80;;;;;;5058456;28;20396;-67
2021/10/21 12:34:36;;;;;;;1.97;1.87;;;14.10;99.70;;;;;;5058212;28;20404;-67
2021/10/21 12:37:07;;;;;;;2.10;2.00;;;14.10;99.30;;;;;;5058721;28;20457;-67
2021/10/21 12:39:34;;;;;;;2.20;2.10;;;14.20;99.90;;;;;;5058157;28;20482;-67
2021/10/21 12:42:08;;;;;;;2.40;2.30;;;14.30;99.90;;;;;;5058466;28;20412;-66
2021/10/21 12:44:35;;;;;;;5.13;2.60;;;14.40;99.90;;;;;;5058024;28;20810;-67
2021/10/21 12:47:27;;;;;;;3.80;2.57;;;14.50;99.90;;;;;;5058635;28;20427;-66
2021/10/21 12:50:03;;;;;;;2.80;2.07;;;14.50;99.90;;;;;;5058653;28;20444;-67
2021/10/21 12:52:32;;;;;;;3.63;2.53;;;14.30;99.90;;;;;;5056970;28;20412;-67
2021/10/21 12:55:18;;;;;;;3.60;3.27;;;14.40;99.90;;;;;;5041193;28;20507;-67
2021/10/21 12:57:56;;;;;;;2.57;2.37;;;14.30;99.90;;;;;;5057990;28;20794;-67
2021/10/21 13:00:27;;;;;;;2.40;2.23;;;14.00;99.90;;;;;;5057743;28;20803;-67